Terminal Aerodrome Forecast
Issued by NWS Charleston, WV

Current Version | Previous Version | Graphics & Text | Print | Product List | Glossary On
Versions: 1 2 3 4 5 6 7 8 9 10 11 12 13 14 15 16 17 18 19 20 21 22 23 24 25 26 27 28 29 30
000
FTUS41 KRLX 272238 AAA
TAFEKN
TAF AMD
KEKN 272238Z 2723/2818 17005KT P6SM VCTS SCT050CB
     FM280100 00000KT 5SM BR SCT100
     FM280600 00000KT 1 1/2SM BR SCT090
     FM280800 00000KT 1/2SM FG VV002
     FM281300 00000KT P6SM SCT060=

USA.gov is the U.S. government's official web portal to all federal, state and local government web resources and services.